createdAt,value
2022-08-14T00:01:10.434Z,52.90
2022-08-14T00:04:00.201Z,53.00
2022-08-14T00:06:49.771Z,53.00
2022-08-14T00:09:55.290Z,53.20
2022-08-14T00:12:56.825Z,53.70
2022-08-14T00:15:49.487Z,53.70
2022-08-14T00:19:06.100Z,54.10
2022-08-14T00:21:47.126Z,54.40
2022-08-14T00:24:35.673Z,54.50
2022-08-14T00:27:24.169Z,54.50
2022-08-14T00:30:14.158Z,54.40
2022-08-14T00:33:15.227Z,54.90
2022-08-14T00:36:35.844Z,55.60
2022-08-14T00:39:18.039Z,55.40
2022-08-14T00:42:07.578Z,55.30
2022-08-14T00:45:13.899Z,55.90
2022-08-14T00:48:02.951Z,55.90
2022-08-14T00:50:55.061Z,55.80
2022-08-14T00:53:44.532Z,56.10
2022-08-14T00:56:33.664Z,56.30
2022-08-14T00:59:23.219Z,56.20
2022-08-14T01:02:13.135Z,56.90
2022-08-14T01:05:07.532Z,56.80
2022-08-14T01:07:58.497Z,57.30
2022-08-14T01:10:53.170Z,57.30
2022-08-14T01:13:43.103Z,57.50
2022-08-14T01:16:31.918Z,57.60
2022-08-14T01:19:38.342Z,58.00
2022-08-14T01:22:29.535Z,58.20
2022-08-14T01:25:18.137Z,58.50
2022-08-14T01:28:06.927Z,58.10
2022-08-14T01:30:59.881Z,58.70
2022-08-14T01:35:16.084Z,58.90
2022-08-14T01:36:59.720Z,59.00
2022-08-14T01:39:54.455Z,59.10
2022-08-14T01:42:44.384Z,59.60
2022-08-14T01:45:40.622Z,59.80
2022-08-14T01:48:30.381Z,59.70
2022-08-14T01:51:22.864Z,59.80
2022-08-14T01:54:14.494Z,60.40
2022-08-14T01:57:04.580Z,60.60
2022-08-14T01:59:54.550Z,60.70
2022-08-14T02:02:46.563Z,61.00
2022-08-14T02:05:38.323Z,61.30
2022-08-14T02:08:34.751Z,61.10
2022-08-14T02:11:25.098Z,61.30
2022-08-14T02:14:15.160Z,61.70
2022-08-14T02:17:23.659Z,62.20
2022-08-14T02:20:12.323Z,62.60
2022-08-14T02:23:00.983Z,62.60
2022-08-14T02:25:54.527Z,62.50
2022-08-14T02:28:58.381Z,63.10
2022-08-14T02:31:51.406Z,63.30
2022-08-14T02:34:41.387Z,63.70
2022-08-14T02:37:37.422Z,63.90
2022-08-14T02:40:37.950Z,63.90
2022-08-14T02:43:36.595Z,63.50
2022-08-14T02:46:32.024Z,63.90
2022-08-14T02:49:34.006Z,63.90
2022-08-14T02:52:56.442Z,64.30
2022-08-14T02:55:32.972Z,63.90
2022-08-14T02:58:30.693Z,65.20
2022-08-14T03:01:22.098Z,64.80
2022-08-14T03:04:12.943Z,65.10
2022-08-14T03:07:07.600Z,65.50
2022-08-14T03:10:26.784Z,65.60
2022-08-14T03:13:06.119Z,65.50
2022-08-14T03:16:02.500Z,64.80
2022-08-14T03:19:00.279Z,65.20
2022-08-14T03:21:52.951Z,65.10
2022-08-14T03:24:43.314Z,65.50
2022-08-14T03:27:47.769Z,66.10
2022-08-14T03:30:39.389Z,66.10
2022-08-14T03:33:37.839Z,66.20
2022-08-14T03:37:37.422Z,66.50
2022-08-14T03:39:38.843Z,66.30
2022-08-14T03:42:35.844Z,65.70
2022-08-14T03:45:35.732Z,65.90
2022-08-14T03:48:30.474Z,65.50
2022-08-14T03:51:19.995Z,65.30
2022-08-14T03:54:09.321Z,65.10
2022-08-14T03:57:04.417Z,65.10
2022-08-14T03:59:54.284Z,65.40
2022-08-14T04:02:46.919Z,65.40
2022-08-14T04:05:42.899Z,65.10
2022-08-14T04:08:37.631Z,65.30
2022-08-14T04:11:26.154Z,65.60
2022-08-14T04:14:15.226Z,65.70
2022-08-14T04:17:05.846Z,66.00
2022-08-14T04:20:03.920Z,66.40
2022-08-14T04:22:53.190Z,66.70
2022-08-14T04:25:44.266Z,67.20
2022-08-14T04:29:07.075Z,67.30
2022-08-14T04:33:01.461Z,67.60
2022-08-14T04:34:55.119Z,68.00
2022-08-14T04:38:01.596Z,69.30
2022-08-14T04:41:14.023Z,69.10
2022-08-14T04:44:02.589Z,69.20
2022-08-14T04:47:09.891Z,69.90
2022-08-14T04:50:03.518Z,70.30
2022-08-14T04:52:53.966Z,71.10
2022-08-14T04:55:47.801Z,71.50
2022-08-14T04:58:40.384Z,72.10
2022-08-14T05:01:29.517Z,72.50
2022-08-14T05:04:28.638Z,73.10
2022-08-14T05:07:18.515Z,73.00
2022-08-14T05:10:32.374Z,74.10
2022-08-14T05:13:24.671Z,74.00
2022-08-14T05:16:20.333Z,74.30
2022-08-14T05:19:17.738Z,75.60
2022-08-14T05:22:15.617Z,75.20
2022-08-14T05:25:08.765Z,75.40
2022-08-14T05:28:00.481Z,76.60
2022-08-14T05:30:50.888Z,76.90
2022-08-14T05:33:40.104Z,77.30
2022-08-14T05:36:28.853Z,78.40
2022-08-14T05:39:18.955Z,79.60
2022-08-14T05:42:09.992Z,80.50
2022-08-14T05:45:13.535Z,80.80
2022-08-14T05:48:03.537Z,80.40
2022-08-14T05:50:52.415Z,80.00
2022-08-14T05:53:42.237Z,79.20
2022-08-14T05:56:30.953Z,78.40
2022-08-14T05:59:36.886Z,77.40
2022-08-14T06:02:27.956Z,76.30
2022-08-14T06:05:17.647Z,75.70
2022-08-14T06:08:31.307Z,74.60
2022-08-14T06:11:30.719Z,72.60
2022-08-14T06:14:24.113Z,72.00
2022-08-14T06:17:15.706Z,71.00
2022-08-14T06:20:14.954Z,70.10
2022-08-14T06:23:03.476Z,69.40
2022-08-14T06:25:52.864Z,67.40
2022-08-14T06:28:45.421Z,66.40
2022-08-14T06:31:35.690Z,65.10
2022-08-14T06:35:03.352Z,63.70
2022-08-14T06:37:41.828Z,62.70
2022-08-14T06:40:34.425Z,60.60
2022-08-14T06:43:27.004Z,60.30
2022-08-14T06:46:23.296Z,60.20
2022-08-14T06:49:26.457Z,59.80
2022-08-14T06:52:16.597Z,59.00
2022-08-14T06:55:05.840Z,58.40
2022-08-14T06:57:57.753Z,58.60
2022-08-14T07:01:20.356Z,58.30
2022-08-14T07:04:39.551Z,58.20
2022-08-14T07:07:39.341Z,58.20
2022-08-14T07:10:27.986Z,57.60
2022-08-14T07:13:18.719Z,57.70
2022-08-14T07:16:07.915Z,57.20
2022-08-14T07:18:56.459Z,56.70
2022-08-14T07:21:44.976Z,56.40
2022-08-14T07:24:35.133Z,56.80
2022-08-14T07:27:24.302Z,55.80
2022-08-14T07:30:33.727Z,56.00
2022-08-14T07:33:32.923Z,55.90
2022-08-14T07:36:27.224Z,56.00
2022-08-14T07:39:18.990Z,55.40
2022-08-14T07:42:20.030Z,55.50
2022-08-14T07:45:12.403Z,55.10
2022-08-14T07:48:00.920Z,54.80
2022-08-14T07:50:50.813Z,54.60
2022-08-14T07:53:40.851Z,55.00
2022-08-14T07:56:47.028Z,54.40
2022-08-14T07:59:41.218Z,54.30
2022-08-14T08:02:32.870Z,53.80
2022-08-14T08:05:24.210Z,53.40
2022-08-14T08:08:27.190Z,53.40
2022-08-14T08:11:16.213Z,53.40
2022-08-14T08:14:10.356Z,53.20
2022-08-14T08:17:06.826Z,53.10
2022-08-14T08:19:57.322Z,52.70
2022-08-14T08:22:47.905Z,52.50
2022-08-14T08:25:39.645Z,52.40
2022-08-14T08:28:29.146Z,52.10
2022-08-14T08:31:17.667Z,51.70
2022-08-14T08:34:14.307Z,51.40
2022-08-14T08:37:07.415Z,50.50
2022-08-14T08:40:03.487Z,50.30
2022-08-14T08:42:53.294Z,49.60
2022-08-14T08:45:45.599Z,49.50
2022-08-14T08:48:53.772Z,48.80
2022-08-14T08:51:43.658Z,46.90
2022-08-14T08:54:32.286Z,47.90
2022-08-14T08:57:21.568Z,47.90
2022-08-14T09:00:25.905Z,47.50
2022-08-14T09:03:17.190Z,47.00
2022-08-14T09:06:09.521Z,47.00
2022-08-14T09:09:22.764Z,47.60
2022-08-14T09:12:13.940Z,46.80
2022-08-14T09:15:04.396Z,46.80
2022-08-14T09:18:01.035Z,46.60
2022-08-14T09:20:51.467Z,46.80
2022-08-14T09:24:26.886Z,46.30
2022-08-14T09:26:53.281Z,47.10
2022-08-14T09:29:42.093Z,47.00
2022-08-14T09:32:59.217Z,47.00
2022-08-14T09:35:59.291Z,46.00
2022-08-14T09:38:50.638Z,45.80
2022-08-14T09:42:20.610Z,44.80
2022-08-14T09:45:16.692Z,43.90
2022-08-14T09:48:15.791Z,44.30
2022-08-14T09:54:17.883Z,43.10
2022-08-14T09:57:14.001Z,40.70
2022-08-14T10:00:28.722Z,41.20
2022-08-14T10:03:28.646Z,41.10
2022-08-14T10:06:20.189Z,40.80
2022-08-14T10:09:11.996Z,40.80
2022-08-14T10:12:06.823Z,40.70
2022-08-14T10:15:20.987Z,40.70
2022-08-14T10:18:17.225Z,40.00
2022-08-14T10:21:09.484Z,39.00
2022-08-14T10:23:58.268Z,38.40
2022-08-14T10:27:00.540Z,38.40
2022-08-14T10:29:51.579Z,38.60
2022-08-14T10:32:52.260Z,39.40
2022-08-14T10:35:47.907Z,38.90
2022-08-14T10:38:37.549Z,39.10
2022-08-14T10:41:46.617Z,39.00
2022-08-14T10:44:39.739Z,39.80
2022-08-14T10:47:41.287Z,39.70
2022-08-14T10:50:51.389Z,39.20
2022-08-14T10:53:40.361Z,38.50
2022-08-14T10:56:35.496Z,37.80
2022-08-14T10:59:35.463Z,36.80
2022-08-14T11:02:45.325Z,36.80
2022-08-14T11:05:43.289Z,37.50
2022-08-14T11:08:34.338Z,36.80
2022-08-14T11:11:25.199Z,36.20
2022-08-14T11:14:22.819Z,36.30
2022-08-14T11:17:15.481Z,35.50
2022-08-14T11:20:14.157Z,35.20
2022-08-14T11:23:07.668Z,34.90
2022-08-14T11:25:59.775Z,34.60
2022-08-14T11:28:50.600Z,34.20
2022-08-14T11:31:39.360Z,33.30
2022-08-14T11:34:33.761Z,33.90
2022-08-14T11:37:31.656Z,33.80
2022-08-14T11:40:30.676Z,33.70
2022-08-14T11:43:29.291Z,34.20
2022-08-14T11:46:29.812Z,33.70
2022-08-14T11:49:34.146Z,32.90
2022-08-14T11:52:23.509Z,33.10
2022-08-14T11:55:14.241Z,33.20
2022-08-14T11:58:04.927Z,33.40
2022-08-14T12:00:58.761Z,33.20
2022-08-14T12:03:52.195Z,32.70
2022-08-14T12:06:49.726Z,32.90
2022-08-14T12:09:43.044Z,32.90
2022-08-14T12:12:35.909Z,32.90
2022-08-14T12:15:33.231Z,32.30
2022-08-14T12:18:34.444Z,32.60
2022-08-14T12:21:25.515Z,32.30
2022-08-14T12:24:36.235Z,33.20
2022-08-14T12:27:25.266Z,33.00
2022-08-14T12:30:14.547Z,32.50
2022-08-14T12:33:25.678Z,33.10
2022-08-14T12:36:22.039Z,32.50
2022-08-14T12:39:19.711Z,32.40
2022-08-14T12:42:11.943Z,32.40
2022-08-14T12:45:17.417Z,32.70
2022-08-14T12:48:21.743Z,32.50
2022-08-14T12:51:21.724Z,32.70
2022-08-14T12:54:27.721Z,32.60
2022-08-14T12:57:20.528Z,32.80
2022-08-14T13:00:23.208Z,33.10
2022-08-14T13:03:12.371Z,33.10
2022-08-14T13:06:01.446Z,32.80
2022-08-14T13:08:53.297Z,32.90
2022-08-14T13:11:46.444Z,32.90
2022-08-14T13:14:35.057Z,33.00
2022-08-14T13:17:24.258Z,33.20
2022-08-14T13:20:24.406Z,33.20
2022-08-14T13:23:13.868Z,33.10
2022-08-14T13:26:05.448Z,33.10
2022-08-14T13:29:02.577Z,33.20
2022-08-14T13:31:55.077Z,33.20
2022-08-14T13:34:45.490Z,33.90
2022-08-14T13:37:34.991Z,32.80
2022-08-14T13:40:26.661Z,33.10
2022-08-14T13:43:16.065Z,32.90
2022-08-14T13:46:07.144Z,32.60
2022-08-14T13:49:00.128Z,32.90
2022-08-14T13:51:50.421Z,32.40
2022-08-14T13:54:42.146Z,32.70
2022-08-14T13:57:30.719Z,32.70
2022-08-14T14:00:21.773Z,32.70
2022-08-14T14:03:23.739Z,31.90
2022-08-14T14:06:12.218Z,32.00
2022-08-14T14:09:01.758Z,32.20
2022-08-14T14:11:52.807Z,32.20
2022-08-14T14:14:51.278Z,32.00
2022-08-14T14:17:44.044Z,31.50
2022-08-14T14:20:36.343Z,31.60
2022-08-14T14:23:27.585Z,31.80
2022-08-14T14:26:24.167Z,31.80
2022-08-14T14:29:13.983Z,31.90
2022-08-14T14:32:02.720Z,31.50
2022-08-14T14:34:51.739Z,31.60
2022-08-14T14:37:43.521Z,31.40
2022-08-14T14:40:54.525Z,31.60
2022-08-14T14:43:44.901Z,31.10
2022-08-14T14:46:36.348Z,31.10
2022-08-14T14:49:41.780Z,31.10
2022-08-14T14:52:37.017Z,30.80
2022-08-14T14:55:29.370Z,31.00
2022-08-14T14:58:38.293Z,31.10
2022-08-14T15:01:28.008Z,31.20
2022-08-14T15:04:20.591Z,31.20
2022-08-14T15:07:09.700Z,31.00
2022-08-14T15:10:01.252Z,30.00
2022-08-14T15:12:55.879Z,30.40
2022-08-14T15:15:52.787Z,30.40
2022-08-14T15:18:46.880Z,30.20
2022-08-14T15:21:37.962Z,30.50
2022-08-14T15:24:27.436Z,30.70
2022-08-14T15:27:15.974Z,30.70
2022-08-14T15:30:23.592Z,30.80
2022-08-14T15:33:14.249Z,31.20
2022-08-14T15:36:04.389Z,31.30
2022-08-14T15:39:13.022Z,31.00
2022-08-14T15:42:04.271Z,31.10
2022-08-14T15:45:03.602Z,31.20
2022-08-14T15:47:53.480Z,31.20
2022-08-14T15:50:43.277Z,31.10
2022-08-14T15:53:32.216Z,31.10
2022-08-14T15:56:42.451Z,31.20
2022-08-14T15:59:53.960Z,31.10
2022-08-14T16:02:41.831Z,31.20
2022-08-14T16:05:38.565Z,31.20
2022-08-14T16:08:30.115Z,31.20
2022-08-14T16:11:20.003Z,31.00
2022-08-14T16:14:08.558Z,30.70
2022-08-14T16:17:00.303Z,31.00
2022-08-14T16:19:49.273Z,31.00
2022-08-14T16:22:59.501Z,31.20
2022-08-14T16:25:52.756Z,31.30
2022-08-14T16:28:41.729Z,31.60
2022-08-14T16:31:36.024Z,31.40
2022-08-14T16:34:46.057Z,31.50
2022-08-14T16:37:35.235Z,31.40
2022-08-14T16:43:15.367Z,32.70
2022-08-14T16:46:06.382Z,31.70
2022-08-14T16:48:58.417Z,31.70
2022-08-14T16:51:52.661Z,31.80
2022-08-14T16:54:44.534Z,31.90
2022-08-14T16:57:35.256Z,32.10
2022-08-14T17:00:32.912Z,32.00
2022-08-14T17:03:21.735Z,32.10
2022-08-14T17:06:30.531Z,32.70
2022-08-14T17:09:35.350Z,32.40
2022-08-14T17:12:35.164Z,32.40
2022-08-14T17:16:26.093Z,33.00
2022-08-14T17:19:17.736Z,35.20
2022-08-14T17:22:08.221Z,35.30
2022-08-14T17:25:03.707Z,35.50
2022-08-14T17:28:37.025Z,35.80
2022-08-14T17:31:19.924Z,36.80
2022-08-14T17:34:10.248Z,36.60
2022-08-14T17:37:06.972Z,36.80
2022-08-14T17:40:15.331Z,37.10
2022-08-14T17:43:04.676Z,37.80
2022-08-14T17:45:53.498Z,37.90
2022-08-14T17:49:13.730Z,38.30
2022-08-14T17:52:07.585Z,38.40
2022-08-14T17:55:05.561Z,39.40
2022-08-14T17:57:54.953Z,39.20
2022-08-14T18:00:45.125Z,39.80
2022-08-14T18:03:50.292Z,39.90
2022-08-14T18:06:58.878Z,40.20
2022-08-14T18:09:57.528Z,40.20
2022-08-14T18:12:47.644Z,40.60
2022-08-14T18:15:37.393Z,40.80
2022-08-14T18:18:26.023Z,40.80
2022-08-14T18:21:42.449Z,41.40
2022-08-14T18:24:31.753Z,40.80
2022-08-14T18:27:24.769Z,40.60
2022-08-14T18:30:31.815Z,40.00
2022-08-14T18:33:23.325Z,39.80
2022-08-14T18:36:47.719Z,39.80
2022-08-14T18:39:26.485Z,39.90
2022-08-14T18:42:46.566Z,40.50
2022-08-14T18:45:42.989Z,40.70
2022-08-14T18:48:50.141Z,40.10
2022-08-14T18:51:45.893Z,40.00
2022-08-14T18:54:37.999Z,40.60
2022-08-14T18:57:35.391Z,41.10
2022-08-14T19:00:55.926Z,41.40
2022-08-14T19:03:47.270Z,41.40
2022-08-14T19:06:56.671Z,41.30
2022-08-14T19:09:57.914Z,42.30
2022-08-14T19:13:03.011Z,42.30
2022-08-14T19:16:05.483Z,43.00
2022-08-14T19:19:00.223Z,42.50
2022-08-14T19:21:57.136Z,42.50
2022-08-14T19:24:45.646Z,43.00
2022-08-14T19:27:41.104Z,43.10
2022-08-14T19:30:35.946Z,43.10
2022-08-14T19:33:52.589Z,43.20
2022-08-14T19:37:04.607Z,44.30
2022-08-14T19:39:55.299Z,43.80
2022-08-14T19:42:46.632Z,43.80
2022-08-14T19:45:36.007Z,44.10
2022-08-14T19:48:25.368Z,44.30
2022-08-14T19:51:15.776Z,44.20
2022-08-14T19:54:13.121Z,44.30
2022-08-14T19:57:02.130Z,44.50
2022-08-14T19:59:57.624Z,44.70
2022-08-14T20:02:48.899Z,44.80
2022-08-14T20:05:45.544Z,45.20
2022-08-14T20:10:59.816Z,45.50
2022-08-14T20:12:01.812Z,45.50
2022-08-14T20:14:53.103Z,45.00
2022-08-14T20:17:42.038Z,44.70
2022-08-14T20:20:32.754Z,45.00
2022-08-14T20:23:21.653Z,45.60
2022-08-14T20:26:30.937Z,45.30
2022-08-14T20:29:31.238Z,45.90
2022-08-14T20:32:33.201Z,45.60
2022-08-14T20:35:35.156Z,45.20
2022-08-14T20:38:32.602Z,45.40
2022-08-14T20:41:23.590Z,45.20
2022-08-14T20:44:29.479Z,45.60
2022-08-14T20:47:18.779Z,45.60
2022-08-14T20:50:20.189Z,45.20
2022-08-14T20:53:33.369Z,45.60
2022-08-14T20:56:28.421Z,46.20
2022-08-14T20:59:20.132Z,45.70
2022-08-14T21:02:29.584Z,45.80
2022-08-14T21:05:21.169Z,46.10
2022-08-14T21:08:22.138Z,45.80
2022-08-14T21:11:18.104Z,45.70
2022-08-14T21:14:25.056Z,46.00
2022-08-14T21:17:15.120Z,45.70
2022-08-14T21:20:25.784Z,45.80
2022-08-14T21:23:17.369Z,46.10
2022-08-14T21:26:07.291Z,46.10
2022-08-14T21:28:57.856Z,46.20
2022-08-14T21:31:55.353Z,46.20
2022-08-14T21:34:54.970Z,46.80
2022-08-14T21:37:48.052Z,46.30
2022-08-14T21:40:41.914Z,46.30
2022-08-14T21:43:34.488Z,46.30
2022-08-14T21:46:29.132Z,46.70
2022-08-14T21:49:20.987Z,46.60
2022-08-14T21:52:52.167Z,47.90
2022-08-14T21:55:23.920Z,47.20
2022-08-14T21:58:53.332Z,47.20
2022-08-14T22:01:21.516Z,47.10
2022-08-14T22:04:33.441Z,47.10
2022-08-14T22:07:21.189Z,47.10
2022-08-14T22:10:24.283Z,46.90
2022-08-14T22:13:14.662Z,47.20
2022-08-14T22:16:05.717Z,47.50
2022-08-14T22:19:16.882Z,47.20
2022-08-14T22:22:07.578Z,47.40
2022-08-14T22:25:01.238Z,47.40
2022-08-14T22:27:55.517Z,47.50
2022-08-14T22:30:47.123Z,47.50
2022-08-14T22:33:43.321Z,47.50
2022-08-14T22:36:50.237Z,47.40
2022-08-14T22:39:39.973Z,47.30
2022-08-14T22:43:00.226Z,47.40
2022-08-14T22:45:55.820Z,47.30
2022-08-14T22:48:46.500Z,47.40
2022-08-14T22:51:40.838Z,47.50
2022-08-14T22:54:52.961Z,47.70
2022-08-14T22:57:43.451Z,47.90
2022-08-14T23:00:32.348Z,47.50
2022-08-14T23:03:22.722Z,48.00
2022-08-14T23:07:04.503Z,47.90
2022-08-14T23:09:35.114Z,47.80
2022-08-14T23:12:37.116Z,48.20
2022-08-14T23:15:30.234Z,48.20
2022-08-14T23:18:22.443Z,48.30
2022-08-14T23:21:13.438Z,48.00
2022-08-14T23:24:03.095Z,48.10
2022-08-14T23:26:53.692Z,48.20
2022-08-14T23:29:42.448Z,48.40
2022-08-14T23:32:31.889Z,47.90
2022-08-14T23:35:25.898Z,48.20
2022-08-14T23:38:30.633Z,48.10
2022-08-14T23:41:19.833Z,48.30
2022-08-14T23:44:08.973Z,48.30
2022-08-14T23:47:00.579Z,48.50
2022-08-14T23:50:00.678Z,48.40
2022-08-14T23:53:06.693Z,48.70
2022-08-14T23:55:58.985Z,49.20
2022-08-14T23:58:52.684Z,49.40
